createdAt,value
2018-08-11T00:00:30.854Z,95726.45
2018-08-11T00:03:00.148Z,95728.94
2018-08-11T00:05:29.409Z,95726.48
2018-08-11T00:07:58.742Z,95722.35
2018-08-11T00:10:27.986Z,95718.27
2018-08-11T00:12:57.262Z,95712.66
2018-08-11T00:15:26.555Z,95709.05
2018-08-11T00:17:55.763Z,95711.33
2018-08-11T00:20:26.817Z,95720.90
2018-08-11T00:22:56.095Z,95719.75
2018-08-11T00:25:25.353Z,95714.95
2018-08-11T00:27:55.199Z,95720.89
2018-08-11T00:30:24.490Z,95716.45
2018-08-11T00:32:53.742Z,95716.59
2018-08-11T00:35:23.033Z,95716.45
2018-08-11T00:37:52.275Z,95714.31
2018-08-11T00:40:21.538Z,95712.66
2018-08-11T00:42:51.397Z,95715.11
2018-08-11T00:45:20.683Z,95713.14
2018-08-11T00:47:49.947Z,95715.64
2018-08-11T00:50:24.006Z,95704.22
2018-08-11T00:52:53.630Z,95706.36
2018-08-11T00:55:22.893Z,95705.88
2018-08-11T00:57:52.135Z,95708.97
2018-08-11T01:00:21.394Z,95709.62
2018-08-11T01:02:50.628Z,95701.26
2018-08-11T01:05:20.987Z,95700.09
2018-08-11T01:07:50.987Z,95698.93
2018-08-11T01:10:20.453Z,95696.30
2018-08-11T01:12:49.949Z,95698.91
2018-08-11T01:15:20.854Z,95702.00
2018-08-11T01:17:50.763Z,95697.41
2018-08-11T01:20:20.045Z,95694.11
2018-08-11T01:22:49.798Z,95698.72
2018-08-11T01:25:19.086Z,95697.43
2018-08-11T01:27:48.366Z,95699.20
2018-08-11T01:30:19.970Z,95699.70
2018-08-11T01:32:49.182Z,95698.70
2018-08-11T01:35:18.511Z,95691.52
2018-08-11T01:37:47.948Z,95689.50
2018-08-11T01:40:17.830Z,95698.84
2018-08-11T01:42:48.171Z,95696.24
2018-08-11T01:45:18.028Z,95693.08
2018-08-11T01:47:47.591Z,95695.86
2018-08-11T01:50:17.065Z,95695.86
2018-08-11T01:52:47.246Z,95693.87
2018-08-11T01:55:18.638Z,95694.81
2018-08-11T01:57:47.878Z,95692.98
2018-08-11T02:00:17.708Z,95695.78
2018-08-11T02:02:46.975Z,95691.89
2018-08-11T02:05:16.213Z,95689.45
2018-08-11T02:07:45.869Z,95685.30
2018-08-11T02:10:17.268Z,95683.50
2018-08-11T02:12:46.964Z,95685.67
2018-08-11T02:15:16.567Z,95681.36
2018-08-11T02:17:45.795Z,95683.45
2018-08-11T02:20:16.368Z,95681.36
2018-08-11T02:22:46.388Z,95684.93
2018-08-11T02:25:15.671Z,95679.68
2018-08-11T02:27:44.950Z,95676.55
2018-08-11T02:30:16.796Z,95673.36
2018-08-11T02:32:46.066Z,95667.06
2018-08-11T02:35:15.562Z,95663.90
2018-08-11T02:37:45.174Z,95666.98
2018-08-11T02:40:16.528Z,95663.95
2018-08-11T02:42:45.784Z,95665.84
2018-08-11T02:45:16.504Z,95658.28
2018-08-11T02:47:46.452Z,95662.84
2018-08-11T02:50:15.742Z,95662.88
2018-08-11T02:52:44.964Z,95662.55
2018-08-11T02:55:14.204Z,95661.67
2018-08-11T02:57:43.463Z,95660.98
2018-08-11T03:00:13.379Z,95667.51
2018-08-11T03:02:42.590Z,95663.91
2018-08-11T03:05:11.839Z,95665.37
2018-08-11T03:07:41.072Z,95665.84
2018-08-11T03:10:11.481Z,95661.74
2018-08-11T03:12:41.480Z,95660.39
2018-08-11T03:15:12.404Z,95658.42
2018-08-11T03:17:41.984Z,95660.62
2018-08-11T03:20:13.837Z,95663.21
2018-08-11T03:22:43.477Z,95658.62
2018-08-11T03:25:12.745Z,95660.38
2018-08-11T03:27:41.999Z,95664.13
2018-08-11T03:30:11.238Z,95671.78
2018-08-11T03:32:40.473Z,95666.36
2018-08-11T03:35:09.727Z,95673.09
2018-08-11T03:37:38.954Z,95675.84
2018-08-11T03:40:09.687Z,95674.67
2018-08-11T03:42:39.076Z,95675.62
2018-08-11T03:45:08.330Z,95674.63
2018-08-11T03:47:37.558Z,95676.62
2018-08-11T03:50:07.468Z,95673.35
2018-08-11T03:52:36.893Z,95668.50
2018-08-11T03:55:06.098Z,95680.03
2018-08-11T03:57:35.337Z,95678.41
2018-08-11T04:00:07.429Z,95683.67
2018-08-11T04:02:36.957Z,95685.73
2018-08-11T04:05:06.240Z,95686.21
2018-08-11T04:07:35.453Z,95689.97
2018-08-11T04:10:06.192Z,95688.95
2018-08-11T04:12:35.442Z,95690.88
2018-08-11T04:15:05.444Z,95687.59
2018-08-11T04:17:38.483Z,95688.38
2018-08-11T04:20:09.401Z,95692.80
2018-08-11T04:22:38.730Z,95694.10
2018-08-11T04:25:09.541Z,95691.16
2018-08-11T04:27:38.978Z,95697.38
2018-08-11T04:30:09.707Z,95699.98
2018-08-11T04:32:38.938Z,95703.28
2018-08-11T04:35:08.347Z,95704.80
2018-08-11T04:37:37.831Z,95703.10
2018-08-11T04:40:07.099Z,95710.66
2018-08-11T04:42:36.325Z,95710.55
2018-08-11T04:45:06.554Z,95710.33
2018-08-11T04:47:35.823Z,95708.98
2018-08-11T04:50:06.440Z,95710.81
2018-08-11T04:52:35.718Z,95710.39
2018-08-11T04:55:05.356Z,95704.73
2018-08-11T04:57:34.589Z,95707.84
2018-08-11T05:00:03.868Z,95706.91
2018-08-11T05:02:34.369Z,95708.75
2018-08-11T05:05:03.818Z,95710.20
2018-08-11T05:07:33.026Z,95707.66
2018-08-11T05:10:02.315Z,95717.59
2018-08-11T05:12:31.592Z,95716.45
2018-08-11T05:15:00.852Z,95716.54
2018-08-11T05:17:30.077Z,95714.77
2018-08-11T05:19:59.358Z,95721.73
2018-08-11T05:22:28.631Z,95721.59
2018-08-11T05:24:57.874Z,95714.12
2018-08-11T05:27:27.203Z,95723.20
2018-08-11T05:29:56.520Z,95722.82
2018-08-11T05:32:25.751Z,95732.94
2018-08-11T05:34:55.534Z,95739.77
2018-08-11T05:37:24.794Z,95738.63
2018-08-11T05:39:54.052Z,95736.22
2018-08-11T05:42:23.299Z,95739.39
2018-08-11T05:44:52.541Z,95747.27
2018-08-11T05:47:21.798Z,95758.52
2018-08-11T05:49:51.094Z,95758.50
2018-08-11T05:52:20.376Z,95747.82
2018-08-11T05:54:49.577Z,95755.31
2018-08-11T05:57:19.059Z,95747.81
2018-08-11T05:59:48.317Z,95746.89
2018-08-11T06:02:17.555Z,95746.95
2018-08-11T06:04:46.801Z,95750.97
2018-08-11T06:07:16.083Z,95745.84
2018-08-11T06:09:45.363Z,95753.36
2018-08-11T06:12:14.628Z,95748.53
2018-08-11T06:14:43.908Z,95754.83
2018-08-11T06:17:13.119Z,95758.30
2018-08-11T06:19:42.439Z,95761.39
2018-08-11T06:22:11.666Z,95760.80
2018-08-11T06:24:40.927Z,95762.55
2018-08-11T06:27:10.185Z,95762.61
2018-08-11T06:29:39.496Z,95767.95
2018-08-11T06:32:08.754Z,95771.14
2018-08-11T06:34:38.015Z,95770.98
2018-08-11T06:37:07.456Z,95770.45
2018-08-11T06:39:36.678Z,95776.50
2018-08-11T06:42:06.054Z,95763.37
2018-08-11T06:44:35.287Z,95773.33
2018-08-11T06:47:04.626Z,95777.77
2018-08-11T06:49:34.786Z,95772.55
2018-08-11T06:52:04.250Z,95773.41
2018-08-11T06:54:33.492Z,95770.18
2018-08-11T06:57:02.734Z,95770.31
2018-08-11T06:59:32.005Z,95766.90
2018-08-11T07:02:01.847Z,95771.14
2018-08-11T07:04:31.248Z,95762.33
2018-08-11T07:07:00.831Z,95767.00
2018-08-11T07:09:30.033Z,95765.53
2018-08-11T07:11:59.286Z,95768.77
2018-08-11T07:14:28.566Z,95769.91
2018-08-11T07:16:57.893Z,95771.96
2018-08-11T07:19:27.147Z,95769.27
2018-08-11T07:21:56.407Z,95765.36
2018-08-11T07:24:25.719Z,95764.00
2018-08-11T07:26:54.980Z,95760.77
2018-08-11T07:29:24.226Z,95754.66
2018-08-11T07:31:53.591Z,95757.09
2018-08-11T07:34:23.024Z,95754.39
2018-08-11T07:36:52.305Z,95755.31
2018-08-11T07:39:21.550Z,95756.22
2018-08-11T07:41:50.849Z,95755.46
2018-08-11T07:44:20.138Z,95751.63
2018-08-11T07:46:49.385Z,95754.87
2018-08-11T07:49:18.621Z,95756.75
2018-08-11T07:51:48.111Z,95756.50
2018-08-11T07:54:17.366Z,95758.31
2018-08-11T07:56:46.608Z,95762.06
2018-08-11T07:59:15.844Z,95760.48
2018-08-11T08:01:45.099Z,95759.88
2018-08-11T08:04:14.335Z,95764.51
2018-08-11T08:06:43.563Z,95761.38
2018-08-11T08:09:14.182Z,95765.73
2018-08-11T08:11:43.566Z,95765.19
2018-08-11T08:14:13.890Z,95759.41
2018-08-11T08:16:43.133Z,95761.23
2018-08-11T08:19:12.366Z,95761.75
2018-08-11T08:21:41.601Z,95760.31
2018-08-11T08:24:10.879Z,95764.13
2018-08-11T08:26:40.144Z,95760.88
2018-08-11T08:29:09.382Z,95763.81
2018-08-11T08:31:38.605Z,95767.53
2018-08-11T08:34:07.842Z,95757.34
2018-08-11T08:36:37.054Z,95759.02
2018-08-11T08:39:10.014Z,95758.70
2018-08-11T08:41:39.254Z,95766.58
2018-08-11T08:44:08.511Z,95763.14
2018-08-11T08:46:37.793Z,95767.07
2018-08-11T08:49:07.047Z,95766.27
2018-08-11T08:51:36.336Z,95774.41
2018-08-11T08:54:05.638Z,95771.05
2018-08-11T08:56:34.854Z,95772.44
2018-08-11T08:59:04.217Z,95765.47
2018-08-11T09:01:33.694Z,95771.45
2018-08-11T09:04:04.995Z,95768.44
2018-08-11T09:06:34.271Z,95774.06
2018-08-11T09:09:04.104Z,95775.51
2018-08-11T09:11:33.371Z,95772.16
2018-08-11T09:14:02.635Z,95767.89
2018-08-11T09:16:32.809Z,95771.88
2018-08-11T09:19:02.083Z,95773.57
2018-08-11T09:21:31.333Z,95770.34
2018-08-11T09:24:00.603Z,95770.47
2018-08-11T09:26:29.867Z,95769.34
2018-08-11T09:28:59.106Z,95767.11
2018-08-11T09:31:28.389Z,95767.09
2018-08-11T09:33:57.619Z,95759.25
2018-08-11T09:36:26.862Z,95759.78
2018-08-11T09:38:56.641Z,95760.05
2018-08-11T09:41:25.907Z,95761.66
2018-08-11T09:43:55.303Z,95760.00
2018-08-11T09:46:24.641Z,95764.11
2018-08-11T09:48:54.116Z,95760.48
2018-08-11T09:51:23.421Z,95748.76
2018-08-11T09:53:52.792Z,95750.75
2018-08-11T09:56:22.200Z,95742.20
2018-08-11T09:58:51.629Z,95743.29
2018-08-11T10:01:25.988Z,95744.22
2018-08-11T10:03:55.382Z,95742.09
2018-08-11T10:06:24.745Z,95744.58
2018-08-11T10:08:54.339Z,95741.72
2018-08-11T10:11:23.795Z,95734.27
2018-08-11T10:13:53.174Z,95735.41
2018-08-11T10:16:22.531Z,95731.02
2018-08-11T10:18:52.208Z,95730.47
2018-08-11T10:21:21.531Z,95727.61
2018-08-11T10:23:50.922Z,95736.69
2018-08-11T10:26:51.805Z,95726.38
2018-08-11T10:29:21.223Z,95730.80
2018-08-11T10:31:51.118Z,95722.20
2018-08-11T10:34:20.472Z,95730.26
2018-08-11T10:36:50.264Z,95718.03
2018-08-11T10:39:19.567Z,95717.41
2018-08-11T10:41:48.979Z,95715.69
2018-08-11T10:44:19.307Z,95719.38
2018-08-11T10:46:48.650Z,95714.14
2018-08-11T10:49:18.131Z,95721.41
2018-08-11T10:51:47.515Z,95718.34
2018-08-11T10:54:16.929Z,95711.92
2018-08-11T10:56:47.674Z,95711.47
2018-08-11T10:59:17.204Z,95710.21
2018-08-11T11:01:46.502Z,95710.80
2018-08-11T11:04:15.936Z,95718.77
2018-08-11T11:06:45.420Z,95709.93
2018-08-11T11:09:15.994Z,95710.44
2018-08-11T11:11:45.182Z,95703.77
2018-08-11T11:14:14.476Z,95701.52
2018-08-11T11:16:43.721Z,95700.45
2018-08-11T11:19:12.977Z,95699.75
2018-08-11T11:21:42.208Z,95698.63
2018-08-11T11:24:11.433Z,95699.53
2018-08-11T11:26:41.281Z,95698.19
2018-08-11T11:29:10.558Z,95686.43
2018-08-11T11:31:39.826Z,95691.38
2018-08-11T11:34:09.677Z,95692.54
2018-08-11T11:36:38.898Z,95689.78
2018-08-11T11:39:09.239Z,95689.73
2018-08-11T11:41:39.245Z,95682.67
2018-08-11T11:44:08.877Z,95682.34
2018-08-11T11:46:38.582Z,95678.06
2018-08-11T11:49:07.803Z,95675.22
2018-08-11T11:51:37.111Z,95678.89
2018-08-11T11:54:06.422Z,95682.21
2018-08-11T11:56:35.641Z,95676.98
2018-08-11T11:59:04.908Z,95660.28
2018-08-11T12:01:34.158Z,95677.61
2018-08-11T12:04:03.413Z,95671.34
2018-08-11T12:06:32.675Z,95673.26
2018-08-11T12:09:02.063Z,95672.92
2018-08-11T12:11:31.321Z,95668.36
2018-08-11T12:14:00.554Z,95664.13
2018-08-11T12:16:29.787Z,95664.44
2018-08-11T12:18:59.074Z,95662.08
2018-08-11T12:21:28.433Z,95660.12
2018-08-11T12:23:57.681Z,95666.84
2018-08-11T12:26:26.966Z,95655.91
2018-08-11T12:28:56.171Z,95657.84
2018-08-11T12:31:25.449Z,95647.03
2018-08-11T12:33:54.702Z,95652.78
2018-08-11T12:36:24.079Z,95646.10
2018-08-11T12:38:53.352Z,95640.61
2018-08-11T12:41:22.587Z,95638.72
2018-08-11T12:43:51.895Z,95643.98
2018-08-11T12:46:21.313Z,95645.95
2018-08-11T12:48:50.787Z,95643.95
2018-08-11T12:51:20.557Z,95635.59
2018-08-11T12:53:49.764Z,95638.30
2018-08-11T12:56:19.021Z,95633.75
2018-08-11T12:58:48.959Z,95638.53
2018-08-11T13:01:19.254Z,95635.63
2018-08-11T13:03:48.487Z,95631.09
2018-08-11T13:06:17.897Z,95630.67
2018-08-11T13:08:47.252Z,95627.91
2018-08-11T13:11:17.941Z,95621.04
2018-08-11T13:13:47.315Z,95620.38
2018-08-11T13:16:16.650Z,95615.73
2018-08-11T13:18:47.193Z,95615.82
2018-08-11T13:21:16.610Z,95621.04
2018-08-11T13:23:46.586Z,95619.67
2018-08-11T13:26:15.994Z,95612.65
2018-08-11T13:28:45.341Z,95601.14
2018-08-11T13:31:14.691Z,95593.47
2018-08-11T13:33:44.110Z,95596.10
2018-08-11T13:36:13.540Z,95599.38
2018-08-11T13:38:42.984Z,95604.08
2018-08-11T13:41:13.114Z,95605.39
2018-08-11T13:43:42.566Z,95599.31
2018-08-11T13:46:11.820Z,95592.09
2018-08-11T13:48:41.249Z,95586.89
2018-08-11T13:51:11.212Z,95587.28
2018-08-11T13:53:40.467Z,95592.00
2018-08-11T13:56:09.913Z,95586.97
2018-08-11T13:58:39.477Z,95583.62
2018-08-11T14:01:08.760Z,95585.38
2018-08-11T14:03:39.754Z,95580.25
2018-08-11T14:06:10.991Z,95579.55
2018-08-11T14:08:40.268Z,95575.20
2018-08-11T14:11:09.652Z,95573.19
2018-08-11T14:13:39.048Z,95570.96
2018-08-11T14:16:08.442Z,95571.68
2018-08-11T14:18:37.807Z,95572.04
2018-08-11T14:21:07.117Z,95567.73
2018-08-11T14:23:36.381Z,95564.47
2018-08-11T14:26:06.819Z,95565.01
2018-08-11T14:28:36.053Z,95553.72
2018-08-11T14:31:05.353Z,95558.55
2018-08-11T14:33:34.659Z,95559.48
2018-08-11T14:36:04.008Z,95558.73
2018-08-11T14:38:33.515Z,95561.22
2018-08-11T14:41:02.916Z,95552.61
2018-08-11T14:43:32.130Z,95558.98
2018-08-11T14:46:02.495Z,95557.09
2018-08-11T14:48:32.007Z,95556.28
2018-08-11T14:51:02.719Z,95551.12
2018-08-11T14:53:32.088Z,95542.65
2018-08-11T14:56:01.456Z,95549.26
2018-08-11T14:58:30.865Z,95545.52
2018-08-11T15:01:00.243Z,95550.89
2018-08-11T15:03:29.623Z,95547.59
2018-08-11T15:05:59.113Z,95548.48
2018-08-11T15:08:28.479Z,95546.13
2018-08-11T15:10:57.718Z,95544.72
2018-08-11T15:13:26.996Z,95533.41
2018-08-11T15:15:56.261Z,95532.98
2018-08-11T15:18:25.624Z,95463.12
2018-08-11T15:20:55.048Z,95537.20
2018-08-11T15:23:24.370Z,95532.66
2018-08-11T15:25:53.696Z,95532.64
2018-08-11T15:28:23.021Z,95536.28
2018-08-11T15:30:52.342Z,95531.44
2018-08-11T15:33:21.649Z,95528.17
2018-08-11T15:35:50.878Z,95532.30
2018-08-11T15:38:20.137Z,95534.64
2018-08-11T15:40:49.399Z,95531.88
2018-08-11T15:43:18.799Z,95532.52
2018-08-11T15:45:48.075Z,95534.52
2018-08-11T15:48:17.442Z,95530.03
2018-08-11T15:50:46.687Z,95528.46
2018-08-11T15:53:17.594Z,95522.89
2018-08-11T15:55:46.847Z,95527.42
2018-08-11T15:58:16.120Z,95517.45
2018-08-11T16:00:45.319Z,95518.48
2018-08-11T16:03:14.583Z,95516.84
2018-08-11T16:05:43.811Z,95520.11
2018-08-11T16:08:14.137Z,95519.37
2018-08-11T16:10:43.431Z,95522.66
2018-08-11T16:13:12.712Z,95526.83
2018-08-11T16:15:42.463Z,95528.33
2018-08-11T16:18:11.827Z,95521.53
2018-08-11T16:20:41.152Z,95533.47
2018-08-11T16:23:10.591Z,95523.22
2018-08-11T16:25:40.179Z,95534.43
2018-08-11T16:28:10.794Z,95527.17
2018-08-11T16:30:40.275Z,95528.33
2018-08-11T16:33:09.640Z,95521.11
2018-08-11T16:35:38.950Z,95526.13
2018-08-11T16:38:08.798Z,95513.77
2018-08-11T16:40:39.415Z,95512.40
2018-08-11T16:43:08.827Z,95515.74
2018-08-11T16:45:38.180Z,95521.03
2018-08-11T16:48:07.516Z,95520.36
2018-08-11T16:50:36.779Z,95523.66
2018-08-11T16:53:06.233Z,95526.81
2018-08-11T16:55:35.526Z,95521.17
2018-08-11T16:58:04.886Z,95525.30
2018-08-11T17:00:34.268Z,95524.70
2018-08-11T17:03:03.664Z,95525.89
2018-08-11T17:05:33.216Z,95523.59
2018-08-11T17:08:02.560Z,95526.41
2018-08-11T17:10:32.070Z,95525.63
2018-08-11T17:13:01.428Z,95525.31
2018-08-11T17:15:30.714Z,95528.23
2018-08-11T17:17:59.998Z,95526.14
2018-08-11T17:20:29.322Z,95528.47
2018-08-11T17:22:58.631Z,95523.88
2018-08-11T17:25:27.955Z,95526.51
2018-08-11T17:27:57.195Z,95521.09
2018-08-11T17:30:26.506Z,95524.92
2018-08-11T17:32:55.831Z,95523.02
2018-08-11T17:35:25.095Z,95521.69
2018-08-11T17:37:54.388Z,95526.68
2018-08-11T17:40:23.692Z,95524.66
2018-08-11T17:42:52.955Z,95527.95
2018-08-11T17:45:22.223Z,95523.31
2018-08-11T17:47:51.494Z,95520.80
2018-08-11T17:50:20.745Z,95525.09
2018-08-11T17:52:50.090Z,95524.91
2018-08-11T17:55:19.427Z,95520.81
2018-08-11T17:57:48.724Z,95525.52
2018-08-11T18:00:18.023Z,95526.07
2018-08-11T18:02:47.351Z,95517.56
2018-08-11T18:05:16.626Z,95521.62
2018-08-11T18:07:46.035Z,95523.84
2018-08-11T18:10:15.418Z,95527.08
2018-08-11T18:12:44.754Z,95520.98
2018-08-11T18:15:14.156Z,95520.63
2018-08-11T18:17:44.387Z,95520.56
2018-08-11T18:20:13.655Z,95523.07
2018-08-11T18:22:42.885Z,95529.31
2018-08-11T18:25:12.194Z,95530.09
2018-08-11T18:27:41.452Z,95529.02
2018-08-11T18:30:11.020Z,95531.27
2018-08-11T18:32:40.266Z,95531.42
2018-08-11T18:35:09.738Z,95531.38
2018-08-11T18:37:38.958Z,95533.98
2018-08-11T18:40:08.313Z,95537.56
2018-08-11T18:42:37.529Z,95536.84
2018-08-11T18:45:06.989Z,95546.30
2018-08-11T18:47:36.248Z,95541.37
2018-08-11T18:50:05.496Z,95548.12
2018-08-11T18:52:34.739Z,95550.41
2018-08-11T18:55:04.845Z,95551.69
2018-08-11T18:57:34.103Z,95555.29
2018-08-11T19:00:03.357Z,95556.04
2018-08-11T19:02:32.616Z,95558.25
2018-08-11T19:05:01.891Z,95565.86
2018-08-11T19:07:31.169Z,95567.30
2018-08-11T19:10:00.479Z,95565.09
2018-08-11T19:12:29.702Z,95563.23
2018-08-11T19:14:59.102Z,95563.32
2018-08-11T19:17:28.415Z,95570.95
2018-08-11T19:19:57.793Z,95570.09
2018-08-11T19:22:27.118Z,95577.06
2018-08-11T19:24:56.598Z,95582.42
2018-08-11T19:27:26.007Z,95581.56
2018-08-11T19:29:55.312Z,95580.95
2018-08-11T19:32:24.612Z,95585.88
2018-08-11T19:34:54.026Z,95590.05
2018-08-11T19:37:23.363Z,95590.25
2018-08-11T19:39:52.723Z,95585.89
2018-08-11T19:42:21.989Z,95589.05
2018-08-11T19:44:51.363Z,95586.82
2018-08-11T19:47:21.165Z,95591.88
2018-08-11T19:49:50.410Z,95585.88
2018-08-11T19:52:19.766Z,95587.44
2018-08-11T19:54:50.029Z,95589.70
2018-08-11T19:57:19.331Z,95592.13
2018-08-11T19:59:48.788Z,95582.41
2018-08-11T20:02:18.056Z,95587.91
2018-08-11T20:04:47.307Z,95592.24
2018-08-11T20:07:16.836Z,95593.94
2018-08-11T20:09:46.654Z,95589.73
2018-08-11T20:12:17.676Z,95591.33
2018-08-11T20:14:48.728Z,95598.13
2018-08-11T20:17:18.972Z,95601.00
2018-08-11T20:19:49.584Z,95599.25
2018-08-11T20:22:20.273Z,95602.58
2018-08-11T20:24:50.681Z,95599.94
2018-08-11T20:27:21.026Z,95602.84
2018-08-11T20:29:50.422Z,95600.45
2018-08-11T20:32:19.739Z,95602.69
2018-08-11T20:34:49.023Z,95606.69
2018-08-11T20:37:18.292Z,95605.81
2018-08-11T20:39:47.592Z,95602.20
2018-08-11T20:42:16.907Z,95606.70
2018-08-11T20:44:46.154Z,95600.20
2018-08-11T20:47:15.428Z,95600.03
2018-08-11T20:49:44.686Z,95604.23
2018-08-11T20:52:13.931Z,95604.14
2018-08-11T20:54:43.316Z,95603.27
2018-08-11T20:57:12.609Z,95601.87
2018-08-11T20:59:41.856Z,95602.39
2018-08-11T21:02:11.158Z,95606.16
2018-08-11T21:04:40.410Z,95603.23
2018-08-11T21:07:09.643Z,95606.48
2018-08-11T21:09:38.886Z,95606.88
2018-08-11T21:12:08.208Z,95612.75
2018-08-11T21:14:37.441Z,95611.20
2018-08-11T21:17:07.109Z,95610.70
2018-08-11T21:19:36.338Z,95603.96
2018-08-11T21:22:05.596Z,95605.83
2018-08-11T21:24:34.820Z,95605.63
2018-08-11T21:27:04.114Z,95600.90
2018-08-11T21:29:33.342Z,95607.95
2018-08-11T21:32:02.623Z,95608.27
2018-08-11T21:34:31.874Z,95605.02
2018-08-11T21:37:01.169Z,95603.86
2018-08-11T21:39:30.370Z,95606.95
2018-08-11T21:41:59.628Z,95605.30
2018-08-11T21:44:28.892Z,95600.86
2018-08-11T21:46:58.133Z,95601.49
2018-08-11T21:49:28.219Z,95598.22
2018-08-11T21:51:57.477Z,95600.03
2018-08-11T21:54:26.710Z,95596.52
2018-08-11T21:56:55.954Z,95592.28
2018-08-11T21:59:25.174Z,95589.52
2018-08-11T22:01:54.463Z,95581.90
2018-08-11T22:04:27.761Z,95578.23
2018-08-11T22:06:57.019Z,95579.98
2018-08-11T22:09:26.289Z,95583.91
2018-08-11T22:11:55.519Z,95588.13
2018-08-11T22:14:24.791Z,95587.16
2018-08-11T22:16:54.129Z,95587.79
2018-08-11T22:19:23.409Z,95588.28
2018-08-11T22:21:52.651Z,95581.30
2018-08-11T22:24:21.906Z,95586.57
2018-08-11T22:26:51.155Z,95581.59
2018-08-11T22:29:20.422Z,95583.62
2018-08-11T22:31:49.675Z,95586.94
2018-08-11T22:34:18.938Z,95581.67
2018-08-11T22:36:48.193Z,95580.95
2018-08-11T22:39:17.710Z,95582.53
2018-08-11T22:41:46.950Z,95579.49
2018-08-11T22:44:16.162Z,95583.74
2018-08-11T22:46:45.399Z,95583.25
2018-08-11T22:49:14.674Z,95583.40
2018-08-11T22:51:43.910Z,95583.51
2018-08-11T22:54:13.147Z,95581.41
2018-08-11T22:56:42.389Z,95583.06
2018-08-11T22:59:11.639Z,95576.44
2018-08-11T23:01:40.924Z,95577.34
2018-08-11T23:04:10.142Z,95578.91
2018-08-11T23:06:39.394Z,95573.28
2018-08-11T23:09:08.675Z,95571.36
2018-08-11T23:11:37.918Z,95574.20
2018-08-11T23:14:07.181Z,95566.81
2018-08-11T23:16:36.455Z,95570.44
2018-08-11T23:19:05.730Z,95562.22
2018-08-11T23:21:34.985Z,95565.52
2018-08-11T23:24:04.256Z,95566.30
2018-08-11T23:26:33.546Z,95559.39
2018-08-11T23:29:02.827Z,95563.53
2018-08-11T23:31:32.082Z,95562.14
2018-08-11T23:34:01.334Z,95557.94
2018-08-11T23:36:30.596Z,95558.20
2018-08-11T23:39:00.030Z,95557.09
2018-08-11T23:41:29.307Z,95552.16
2018-08-11T23:43:58.569Z,95551.28
2018-08-11T23:46:27.783Z,95552.33
2018-08-11T23:48:57.030Z,95546.95
2018-08-11T23:51:26.522Z,95549.92
2018-08-11T23:53:55.795Z,95543.39
2018-08-11T23:56:25.043Z,95544.80
2018-08-11T23:58:54.271Z,95540.67
